Time;durP1;ratioP1;P1;durP2;ratioP2;P2;SDS_P1;SDS_P2;PMS_P1;PMS_P2;Temp;Humidity;BMP_temperature;BMP_pressure;BME280_temperature;BME280_humidity;BME280_pressure;Samples;Min_cycle;Max_cycle;Signal;HPM_P1;HPM_P2
2024/01/01 00:00:41;;;;;;;34.95;21.60;;;4.10;99.90;;;;;;4942721;29;20494;-87
2024/01/01 00:03:07;;;;;;;37.25;20.95;;;4.10;99.90;;;;;;4924016;29;20035;-87
2024/01/01 00:05:36;;;;;;;32.65;18.63;;;4.10;99.90;;;;;;4939588;29;20058;-86
2024/01/01 00:08:02;;;;;;;29.25;18.45;;;4.00;99.90;;;;;;4938182;28;20077;-87
2024/01/01 00:10:28;;;;;;;37.28;21.67;;;3.90;99.90;;;;;;4962585;28;20057;-87
2024/01/01 00:12:54;;;;;;;45.10;26.00;;;4.00;99.90;;;;;;4922669;29;20082;-87
2024/01/01 00:15:20;;;;;;;46.45;26.80;;;3.90;99.90;;;;;;4954019;28;20035;-87
2024/01/01 00:17:46;;;;;;;45.72;27.20;;;3.80;99.90;;;;;;4938711;29;20024;-87
2024/01/01 00:20:11;;;;;;;39.38;23.83;;;3.80;99.90;;;;;;4951078;28;20038;-87
2024/01/01 00:22:37;;;;;;;35.33;20.02;;;3.70;99.90;;;;;;4922504;29;20087;-87
2024/01/01 00:25:04;;;;;;;30.75;18.73;;;3.70;99.90;;;;;;4938137;29;20483;-87
2024/01/01 00:27:33;;;;;;;24.88;14.32;;;3.60;99.90;;;;;;4928747;29;20090;-88
2024/01/01 00:30:00;;;;;;;24.77;11.80;;;3.60;99.90;;;;;;4938186;29;20031;-87
2024/01/01 00:32:26;;;;;;;22.73;12.07;;;3.60;99.90;;;;;;4922396;29;20388;-87
2024/01/01 00:34:52;;;;;;;19.08;11.25;;;3.60;99.90;;;;;;4941113;28;20062;-87
2024/01/01 00:37:18;;;;;;;20.20;11.02;;;3.60;99.90;;;;;;4943966;29;20035;-86
2024/01/01 00:39:44;;;;;;;16.20;9.60;;;3.50;99.90;;;;;;4939865;29;20042;-87
2024/01/01 00:42:10;;;;;;;13.65;8.60;;;3.60;99.90;;;;;;4962784;28;20042;-87
2024/01/01 00:44:36;;;;;;;14.35;8.50;;;3.60;99.90;;;;;;4957126;28;20031;-86
2024/01/01 00:47:02;;;;;;;17.90;9.15;;;3.60;99.90;;;;;;4933023;29;20039;-87
2024/01/01 00:49:28;;;;;;;15.70;8.85;;;3.70;99.90;;;;;;4933760;28;20027;-87
2024/01/01 00:51:54;;;;;;;19.45;10.25;;;3.70;99.90;;;;;;4953850;29;20035;-87
2024/01/01 00:54:19;;;;;;;17.75;9.88;;;3.70;99.90;;;;;;4921949;29;20023;-88
2024/01/01 00:56:45;;;;;;;18.77;10.07;;;3.70;99.90;;;;;;4921863;29;20039;-86
2024/01/01 00:59:11;;;;;;;13.85;8.52;;;3.70;99.90;;;;;;4905779;29;20047;-88
2024/01/01 01:01:38;;;;;;;16.17;9.65;;;3.60;99.90;;;;;;4937791;28;20484;-86
2024/01/01 01:04:04;;;;;;;16.50;9.68;;;3.60;99.90;;;;;;4956812;28;20034;-87
2024/01/01 01:06:29;;;;;;;16.13;9.20;;;3.60;99.90;;;;;;4937565;29;20080;-87
2024/01/01 01:08:55;;;;;;;14.10;8.65;;;3.60;99.90;;;;;;4941379;29;20125;-87
2024/01/01 01:11:21;;;;;;;15.68;9.07;;;3.60;99.90;;;;;;4919710;28;20039;-87
2024/01/01 01:13:48;;;;;;;15.40;8.70;;;3.60;99.90;;;;;;4927371;28;20039;-86
2024/01/01 01:16:13;;;;;;;13.27;8.13;;;3.60;99.90;;;;;;4937337;29;20023;-87
2024/01/01 01:18:39;;;;;;;16.15;8.95;;;3.70;99.90;;;;;;4953351;29;20093;-88
2024/01/01 01:21:09;;;;;;;18.25;10.30;;;3.70;99.90;;;;;;4922063;29;20167;-87
2024/01/01 01:23:35;;;;;;;17.05;9.25;;;3.60;99.90;;;;;;4944983;28;20071;-87
2024/01/01 01:26:01;;;;;;;14.13;8.65;;;3.70;99.90;;;;;;4960274;28;20062;-87
2024/01/01 01:28:26;;;;;;;17.00;7.90;;;3.70;99.90;;;;;;4933657;29;20026;-87
2024/01/01 01:30:52;;;;;;;16.95;7.75;;;3.70;99.90;;;;;;4920761;28;20027;-87
2024/01/01 01:33:18;;;;;;;14.57;7.03;;;3.70;99.90;;;;;;4961106;28;20410;-87
2024/01/01 01:35:44;;;;;;;14.00;6.10;;;3.80;99.90;;;;;;4964846;28;20035;-86
2024/01/01 01:38:09;;;;;;;13.43;7.00;;;3.80;99.90;;;;;;4964208;28;20030;-86
2024/01/01 01:40:35;;;;;;;12.23;6.00;;;3.80;99.90;;;;;;4934636;29;20031;-86
2024/01/01 01:43:01;;;;;;;13.05;6.85;;;3.80;99.90;;;;;;4953326;29;20574;-88
2024/01/01 01:45:35;;;;;;;14.55;7.00;;;3.80;99.90;;;;;;4965450;28;20031;-86
2024/01/01 01:48:01;;;;;;;13.80;7.03;;;3.90;99.90;;;;;;4941742;29;20035;-86
2024/01/01 01:50:27;;;;;;;13.60;7.03;;;3.90;99.90;;;;;;4925472;29;20409;-86
2024/01/01 01:52:53;;;;;;;15.20;6.70;;;3.90;99.90;;;;;;4925529;29;20377;-86
2024/01/01 01:55:22;;;;;;;15.50;7.72;;;3.90;99.90;;;;;;4905977;29;20049;-87
2024/01/01 01:57:48;;;;;;;11.65;7.15;;;3.90;99.90;;;;;;4925212;28;20123;-87
2024/01/01 02:00:14;;;;;;;13.20;7.38;;;4.00;99.90;;;;;;4934506;29;20027;-86
2024/01/01 02:02:42;;;;;;;12.02;6.90;;;3.90;99.90;;;;;;4921373;29;20039;-87
2024/01/01 02:05:08;;;;;;;12.77;7.85;;;4.00;99.90;;;;;;4936690;29;20540;-87
2024/01/01 02:07:34;;;;;;;14.40;7.32;;;3.90;99.90;;;;;;4905888;29;20123;-87
2024/01/01 02:09:59;;;;;;;15.13;8.63;;;4.00;99.90;;;;;;4954521;28;20422;-86
2024/01/01 02:12:25;;;;;;;15.77;9.32;;;4.00;99.90;;;;;;4925247;29;20403;-87
2024/01/01 02:14:51;;;;;;;15.57;8.55;;;4.00;99.90;;;;;;4940750;29;20040;-87
2024/01/01 02:17:17;;;;;;;17.75;9.48;;;4.00;99.90;;;;;;4908350;29;20074;-87
2024/01/01 02:19:43;;;;;;;18.33;10.70;;;4.00;99.90;;;;;;4930678;29;20099;-87
2024/01/01 02:22:09;;;;;;;18.80;10.35;;;4.00;99.90;;;;;;4933930;29;20031;-87
2024/01/01 02:24:34;;;;;;;21.20;11.90;;;4.10;99.90;;;;;;4964491;28;20039;-87
2024/01/01 02:27:00;;;;;;;22.27;11.57;;;4.10;99.90;;;;;;4937680;29;20047;-87
2024/01/01 02:29:26;;;;;;;22.17;12.38;;;4.00;99.90;;;;;;4959600;28;20022;-87
2024/01/01 02:31:52;;;;;;;24.15;12.43;;;4.10;99.90;;;;;;4957549;28;20549;-87
2024/01/01 02:34:18;;;;;;;21.40;13.23;;;4.00;99.90;;;;;;4956593;28;20098;-87
2024/01/01 02:36:44;;;;;;;25.17;13.07;;;4.00;99.90;;;;;;4945932;29;20059;-87
2024/01/01 02:39:13;;;;;;;21.75;12.52;;;4.10;99.90;;;;;;4956211;28;20607;-87
2024/01/01 02:41:39;;;;;;;24.00;13.57;;;4.10;99.90;;;;;;4925213;29;20042;-87
2024/01/01 02:44:06;;;;;;;30.77;15.30;;;4.10;99.90;;;;;;4924384;29;20067;-87
2024/01/01 02:46:32;;;;;;;25.70;14.52;;;4.10;99.90;;;;;;4940415;28;20110;-88
2024/01/01 02:48:57;;;;;;;27.10;15.20;;;4.20;99.90;;;;;;4956287;28;20121;-88
2024/01/01 02:51:23;;;;;;;27.70;15.60;;;4.20;99.90;;;;;;4939874;29;20027;-87
2024/01/01 02:53:49;;;;;;;26.60;14.48;;;4.10;99.90;;;;;;4940154;28;20031;-87
2024/01/01 02:56:20;;;;;;;23.48;14.07;;;4.10;99.90;;;;;;4924213;29;20074;-87
2024/01/01 02:58:46;;;;;;;24.20;13.02;;;4.20;99.90;;;;;;4940314;29;20114;-87
2024/01/01 03:01:12;;;;;;;21.33;12.70;;;4.20;99.90;;;;;;4948100;29;20476;-87
2024/01/01 03:03:38;;;;;;;23.85;12.43;;;4.30;99.90;;;;;;4939756;28;20039;-86
2024/01/01 03:06:06;;;;;;;23.23;11.95;;;4.30;99.90;;;;;;4911971;28;20046;-86
2024/01/01 03:08:32;;;;;;;20.55;12.15;;;4.30;99.90;;;;;;4955536;29;20035;-86
2024/01/01 03:10:58;;;;;;;17.52;10.55;;;4.40;99.90;;;;;;4955668;28;20511;-86
2024/01/01 03:13:24;;;;;;;20.02;10.32;;;4.40;99.90;;;;;;4942664;28;20034;-87
2024/01/01 03:15:50;;;;;;;11.77;6.63;;;4.40;99.90;;;;;;4944347;28;20451;-86
2024/01/01 03:18:17;;;;;;;15.77;7.80;;;4.50;99.90;;;;;;4923809;29;20031;-86
2024/01/01 03:20:43;;;;;;;12.88;6.22;;;4.50;99.90;;;;;;4923808;28;20142;-87
2024/01/01 03:23:09;;;;;;;16.30;7.13;;;4.60;99.90;;;;;;4943999;29;20110;-87
2024/01/01 03:25:35;;;;;;;12.27;5.45;;;4.60;99.90;;;;;;4950819;28;20051;-87
2024/01/01 03:28:00;;;;;;;14.20;5.70;;;4.60;99.90;;;;;;4925454;29;20499;-87
2024/01/01 03:30:26;;;;;;;12.68;5.75;;;4.70;99.90;;;;;;4912908;29;20094;-87
2024/01/01 03:32:52;;;;;;;10.52;5.38;;;4.70;99.90;;;;;;4939992;29;20097;-86
2024/01/01 03:35:19;;;;;;;9.68;5.20;;;4.70;99.90;;;;;;4946017;28;20038;-86
2024/01/01 03:37:45;;;;;;;15.88;5.38;;;4.70;99.90;;;;;;4955923;28;20035;-86
2024/01/01 03:40:13;;;;;;;15.65;5.25;;;4.80;99.90;;;;;;4931415;29;20040;-86
2024/01/01 03:42:38;;;;;;;12.30;5.65;;;4.80;99.90;;;;;;4956458;28;20039;-86
2024/01/01 03:45:05;;;;;;;7.63;5.18;;;4.80;99.90;;;;;;4939798;29;20030;-86
2024/01/01 03:47:34;;;;;;;11.93;5.45;;;4.80;99.90;;;;;;4950958;28;20045;-87
2024/01/01 03:50:00;;;;;;;11.40;6.15;;;4.80;99.90;;;;;;4931006;29;20038;-86
2024/01/01 03:52:26;;;;;;;12.40;5.88;;;4.80;99.90;;;;;;4907862;29;20043;-84
2024/01/01 03:54:52;;;;;;;10.18;5.78;;;4.80;99.90;;;;;;4943154;29;20085;-87
2024/01/01 03:57:17;;;;;;;13.23;5.85;;;4.80;99.90;;;;;;4940776;28;20452;-87
2024/01/01 03:59:44;;;;;;;12.57;5.47;;;4.80;99.90;;;;;;4937608;29;20035;-86
2024/01/01 04:02:10;;;;;;;10.38;6.00;;;4.80;99.90;;;;;;4923653;29;20046;-86
2024/01/01 04:04:37;;;;;;;11.05;6.13;;;4.80;99.90;;;;;;4950237;29;20038;-86
2024/01/01 04:07:03;;;;;;;11.35;6.47;;;4.80;99.90;;;;;;4954749;29;20031;-86
2024/01/01 04:09:29;;;;;;;15.10;6.38;;;4.90;99.90;;;;;;4942650;28;20023;-86
2024/01/01 04:11:54;;;;;;;14.43;7.00;;;4.80;99.90;;;;;;4955782;28;20036;-86
2024/01/01 04:14:20;;;;;;;11.80;6.90;;;4.80;99.90;;;;;;4968112;28;20407;-86
2024/01/01 04:16:46;;;;;;;16.45;7.03;;;4.90;99.90;;;;;;4949313;28;20244;-87
2024/01/01 04:19:14;;;;;;;10.90;5.93;;;4.90;99.90;;;;;;4934037;29;20039;-86
2024/01/01 04:21:40;;;;;;;8.82;5.45;;;4.80;99.90;;;;;;4942437;29;20035;-87
2024/01/01 04:24:07;;;;;;;13.90;6.28;;;4.80;99.90;;;;;;4953999;28;20038;-85
2024/01/01 04:26:33;;;;;;;11.63;6.05;;;4.80;99.90;;;;;;4949947;29;20525;-86
2024/01/01 04:28:58;;;;;;;13.45;6.78;;;4.80;99.90;;;;;;4937931;29;20035;-86
2024/01/01 04:31:24;;;;;;;8.68;5.68;;;4.80;99.90;;;;;;4941095;28;20042;-87
2024/01/01 04:33:50;;;;;;;12.30;6.07;;;4.70;99.90;;;;;;4943276;28;20043;-86
2024/01/01 04:36:16;;;;;;;10.05;5.93;;;4.70;99.90;;;;;;4941142;29;20071;-86
2024/01/01 04:38:42;;;;;;;11.02;6.25;;;4.70;99.90;;;;;;4957400;28;20047;-86
2024/01/01 04:41:09;;;;;;;11.10;5.70;;;4.60;99.90;;;;;;4941564;28;20038;-86
2024/01/01 04:43:40;;;;;;;11.80;7.13;;;4.60;99.90;;;;;;4948722;28;20066;-85
2024/01/01 04:46:06;;;;;;;8.68;5.90;;;4.60;99.90;;;;;;4945700;29;20596;-86
2024/01/01 04:48:33;;;;;;;15.02;6.65;;;4.60;99.90;;;;;;4945099;29;20031;-86
2024/01/01 04:50:59;;;;;;;9.10;5.88;;;4.50;99.90;;;;;;4956072;29;20451;-86
2024/01/01 04:53:27;;;;;;;10.43;5.75;;;4.50;99.90;;;;;;4953514;28;20519;-86
2024/01/01 04:55:53;;;;;;;11.57;6.13;;;4.50;99.90;;;;;;4957473;28;20050;-87
2024/01/01 04:58:21;;;;;;;10.80;5.22;;;4.40;99.90;;;;;;4942310;29;20042;-85
2024/01/01 05:00:47;;;;;;;12.73;6.53;;;4.40;99.90;;;;;;4937896;29;20622;-86
2024/01/01 05:03:13;;;;;;;11.82;6.18;;;4.40;99.90;;;;;;4937384;29;20122;-87
2024/01/01 05:05:39;;;;;;;11.63;6.15;;;4.20;99.90;;;;;;4940966;29;20118;-86
2024/01/01 05:08:05;;;;;;;11.15;5.85;;;4.20;99.90;;;;;;4945292;29;20086;-86
2024/01/01 05:10:31;;;;;;;12.38;6.18;;;4.20;99.90;;;;;;4921573;29;20043;-86
2024/01/01 05:12:56;;;;;;;9.80;5.05;;;4.20;99.90;;;;;;4921353;29;20046;-86
2024/01/01 05:15:22;;;;;;;12.27;5.97;;;4.20;99.90;;;;;;4937691;29;20046;-86
2024/01/01 05:17:48;;;;;;;15.05;7.22;;;4.10;99.90;;;;;;4958468;28;20040;-86
2024/01/01 05:20:14;;;;;;;11.23;6.15;;;4.10;99.90;;;;;;4943880;29;20043;-86
2024/01/01 05:22:40;;;;;;;14.65;6.53;;;4.10;99.90;;;;;;4941534;29;20041;-86
2024/01/01 05:25:07;;;;;;;11.20;5.65;;;4.10;99.90;;;;;;4942191;29;20569;-86
2024/01/01 05:27:32;;;;;;;11.30;6.18;;;4.10;99.90;;;;;;4937372;29;20046;-86
2024/01/01 05:29:59;;;;;;;10.32;6.05;;;4.00;99.90;;;;;;4921225;29;20031;-86
2024/01/01 05:32:24;;;;;;;10.60;4.93;;;4.00;99.90;;;;;;4941365;29;20093;-86
2024/01/01 05:34:50;;;;;;;10.15;6.20;;;4.00;99.90;;;;;;4921047;29;20428;-86
2024/01/01 05:37:16;;;;;;;9.70;5.68;;;4.00;99.90;;;;;;4961232;28;20035;-87
2024/01/01 05:39:41;;;;;;;14.43;6.25;;;4.00;99.90;;;;;;4934106;29;20074;-86
2024/01/01 05:42:07;;;;;;;13.27;6.10;;;4.00;99.90;;;;;;4936816;29;20032;-86
2024/01/01 05:44:33;;;;;;;15.82;6.00;;;4.00;99.90;;;;;;4932177;29;20681;-86
2024/01/01 05:46:59;;;;;;;12.27;6.43;;;4.00;99.90;;;;;;4961024;28;20050;-86
2024/01/01 05:49:27;;;;;;;9.73;5.97;;;4.00;99.90;;;;;;4925136;29;20038;-86
2024/01/01 05:51:53;;;;;;;10.30;5.43;;;4.00;99.90;;;;;;4936938;29;20047;-86
2024/01/01 05:54:18;;;;;;;12.60;6.50;;;4.10;99.90;;;;;;4936833;29;20039;-85
2024/01/01 05:56:44;;;;;;;10.57;6.22;;;4.10;99.90;;;;;;4940355;28;20050;-87
2024/01/01 05:59:10;;;;;;;12.65;5.82;;;4.10;99.90;;;;;;4928214;29;20131;-86
2024/01/01 06:01:35;;;;;;;20.42;6.68;;;4.10;99.90;;;;;;4936648;29;20059;-87
2024/01/01 06:04:02;;;;;;;14.38;6.50;;;4.00;99.90;;;;;;4930931;29;20495;-87
2024/01/01 06:06:27;;;;;;;10.85;6.05;;;4.00;99.90;;;;;;4941582;29;20061;-86
2024/01/01 06:08:53;;;;;;;10.75;6.57;;;3.90;99.90;;;;;;4936387;29;20059;-86
2024/01/01 06:11:19;;;;;;;12.30;6.82;;;3.90;99.90;;;;;;4957715;28;20459;-86
2024/01/01 06:13:45;;;;;;;14.00;6.40;;;3.90;99.90;;;;;;4954063;28;20051;-86
2024/01/01 06:16:13;;;;;;;12.18;6.93;;;3.90;99.90;;;;;;4955658;28;20130;-86
2024/01/01 06:18:38;;;;;;;14.35;6.70;;;3.80;99.90;;;;;;4952595;29;20040;-87
2024/01/01 06:21:04;;;;;;;10.40;6.07;;;3.80;99.90;;;;;;4936342;29;20038;-86
2024/01/01 06:23:30;;;;;;;13.32;6.03;;;3.80;99.90;;;;;;4940567;29;20043;-86
2024/01/01 06:25:56;;;;;;;10.45;6.07;;;3.90;99.90;;;;;;4962419;28;20035;-86
2024/01/01 06:28:22;;;;;;;12.73;7.30;;;3.90;99.90;;;;;;4936512;29;20030;-86
2024/01/01 06:30:48;;;;;;;10.05;5.72;;;3.90;99.90;;;;;;4945887;29;20130;-87
2024/01/01 06:33:14;;;;;;;15.95;6.72;;;3.90;99.90;;;;;;4944094;28;20035;-86
2024/01/01 06:35:40;;;;;;;13.10;6.78;;;4.00;99.90;;;;;;4961465;28;20031;-86
2024/01/01 06:38:06;;;;;;;13.57;6.55;;;4.00;99.90;;;;;;4935686;29;20059;-86
2024/01/01 06:40:31;;;;;;;11.75;6.32;;;4.10;99.90;;;;;;4928046;29;20480;-86
2024/01/01 06:42:57;;;;;;;14.20;6.65;;;4.10;99.90;;;;;;4940795;29;20039;-86
2024/01/01 06:45:23;;;;;;;10.35;5.82;;;4.10;99.90;;;;;;4924474;28;20035;-87
2024/01/01 06:47:49;;;;;;;13.90;6.50;;;4.10;99.90;;;;;;4962460;28;20046;-85
2024/01/01 06:50:15;;;;;;;13.20;6.15;;;4.10;99.90;;;;;;4940958;28;20024;-87
2024/01/01 06:52:41;;;;;;;11.85;6.10;;;4.10;99.90;;;;;;4930029;28;20104;-87
2024/01/01 06:55:06;;;;;;;11.70;6.63;;;4.10;99.90;;;;;;4925967;29;20046;-87
2024/01/01 06:57:33;;;;;;;12.13;6.00;;;4.20;99.90;;;;;;4936015;28;20058;-87
2024/01/01 06:59:58;;;;;;;15.20;6.13;;;4.20;99.90;;;;;;4957902;28;20039;-88
2024/01/01 07:02:27;;;;;;;11.15;5.65;;;4.20;99.90;;;;;;4942220;28;20530;-86
2024/01/01 07:04:53;;;;;;;10.73;5.38;;;4.20;99.90;;;;;;4947155;28;20035;-86
2024/01/01 07:07:19;;;;;;;12.18;5.30;;;4.20;99.90;;;;;;4938965;28;20027;-86
2024/01/01 07:09:45;;;;;;;15.48;6.05;;;4.20;99.90;;;;;;4945709;28;20039;-86
2024/01/01 07:12:25;;;;;;;11.77;5.25;;;4.30;99.90;;;;;;4961357;28;20039;-87
2024/01/01 07:14:51;;;;;;;11.75;5.10;;;4.30;99.90;;;;;;4939155;28;20195;-88
2024/01/01 07:17:19;;;;;;;11.02;5.88;;;4.30;99.90;;;;;;4953833;28;20030;-87
2024/01/01 07:19:44;;;;;;;14.48;5.85;;;4.30;99.90;;;;;;4928756;28;20035;-88
2024/01/01 07:22:10;;;;;;;14.07;5.75;;;4.30;99.90;;;;;;4932610;28;20513;-87
2024/01/01 07:24:37;;;;;;;10.85;5.95;;;4.20;99.90;;;;;;4964688;28;20035;-87
2024/01/01 07:27:03;;;;;;;11.05;5.93;;;4.20;99.90;;;;;;4945990;28;20026;-87
2024/01/01 07:29:30;;;;;;;11.48;5.22;;;4.20;99.90;;;;;;4944130;29;20463;-87
2024/01/01 07:31:56;;;;;;;10.43;6.05;;;4.10;99.90;;;;;;4945548;28;20049;-88
2024/01/01 07:34:22;;;;;;;12.55;5.82;;;4.00;99.90;;;;;;4967108;28;20129;-87
2024/01/01 07:36:51;;;;;;;10.77;5.43;;;3.90;99.90;;;;;;4950585;28;20082;-87
2024/01/01 07:39:19;;;;;;;13.65;6.47;;;3.90;99.90;;;;;;4959636;28;20038;-88
2024/01/01 07:41:46;;;;;;;14.63;6.22;;;3.90;99.90;;;;;;4961769;28;20064;-88
2024/01/01 07:44:12;;;;;;;16.52;5.78;;;4.00;99.90;;;;;;4950824;28;20062;-86
2024/01/01 07:46:56;;;;;;;10.65;5.85;;;4.00;99.90;;;;;;4957562;28;20459;-87
2024/01/01 07:49:22;;;;;;;9.82;5.60;;;4.10;99.90;;;;;;4947674;28;20031;-87
2024/01/01 07:51:47;;;;;;;13.13;5.35;;;4.00;99.90;;;;;;4949357;28;20030;-87
2024/01/01 07:54:13;;;;;;;16.65;6.18;;;4.10;99.90;;;;;;4935993;28;20082;-87
2024/01/01 07:56:43;;;;;;;15.10;5.55;;;4.10;99.90;;;;;;4942107;28;20126;-87
2024/01/01 07:59:10;;;;;;;11.70;5.28;;;4.20;99.90;;;;;;4945298;28;20101;-87
2024/01/01 08:01:36;;;;;;;12.15;5.28;;;4.20;99.90;;;;;;4932736;28;20400;-87
2024/01/01 08:04:02;;;;;;;9.07;4.45;;;4.30;99.90;;;;;;4943105;28;20049;-87
2024/01/01 08:06:28;;;;;;;12.02;4.53;;;4.30;99.90;;;;;;4942796;28;20152;-87
2024/01/01 08:08:53;;;;;;;11.45;5.22;;;4.40;99.90;;;;;;4942332;28;20354;-88
2024/01/01 08:11:19;;;;;;;10.90;4.65;;;4.40;99.90;;;;;;4946225;28;20073;-88
2024/01/01 08:13:45;;;;;;;10.40;4.35;;;4.50;99.90;;;;;;4942920;28;20031;-87
2024/01/01 08:16:12;;;;;;;9.05;4.38;;;4.50;99.90;;;;;;4940199;28;20035;-87
2024/01/01 08:18:38;;;;;;;10.48;4.75;;;4.60;99.90;;;;;;4944711;28;20027;-87
2024/01/01 08:21:04;;;;;;;10.90;4.25;;;4.60;99.90;;;;;;4934934;28;20038;-88
2024/01/01 08:23:31;;;;;;;10.07;3.92;;;4.60;99.90;;;;;;4940148;28;20039;-87
2024/01/01 08:25:56;;;;;;;8.98;3.55;;;4.70;99.90;;;;;;4926251;28;20122;-87
2024/01/01 08:28:22;;;;;;;7.22;3.90;;;4.70;99.90;;;;;;4962340;28;20114;-87
2024/01/01 08:30:48;;;;;;;9.32;3.63;;;4.70;99.90;;;;;;4944798;29;20062;-86
2024/01/01 08:33:14;;;;;;;11.88;3.58;;;4.60;99.90;;;;;;4936513;28;20036;-86
2024/01/01 08:35:40;;;;;;;9.30;3.53;;;4.60;99.90;;;;;;4940068;28;20450;-87
2024/01/01 08:38:06;;;;;;;7.07;3.35;;;4.60;99.90;;;;;;4924834;28;20050;-87
2024/01/01 08:40:31;;;;;;;11.27;3.17;;;4.70;99.90;;;;;;4959965;28;20036;-86
2024/01/01 08:42:57;;;;;;;7.57;3.17;;;4.70;99.90;;;;;;4951010;28;20467;-87
2024/01/01 08:45:23;;;;;;;9.50;2.95;;;4.70;99.90;;;;;;4939984;28;20059;-87
2024/01/01 08:47:49;;;;;;;10.45;3.33;;;4.70;99.90;;;;;;4941295;28;20107;-87
2024/01/01 08:50:15;;;;;;;6.13;2.75;;;4.70;99.90;;;;;;4955018;28;20034;-87
2024/01/01 08:52:44;;;;;;;14.23;3.78;;;4.60;99.90;;;;;;4916913;28;20214;-87
2024/01/01 08:55:10;;;;;;;10.43;3.67;;;4.60;99.90;;;;;;4953577;28;20039;-88
2024/01/01 08:57:36;;;;;;;11.25;3.35;;;4.70;99.90;;;;;;4934693;28;20483;-88
2024/01/01 09:00:06;;;;;;;8.95;3.92;;;4.70;99.90;;;;;;4945941;28;20078;-88
2024/01/01 09:02:32;;;;;;;8.23;3.42;;;4.70;99.90;;;;;;4945497;28;20138;-87
2024/01/01 09:04:58;;;;;;;7.93;3.58;;;4.60;99.90;;;;;;4930568;28;20514;-88
2024/01/01 09:07:23;;;;;;;4.43;3.08;;;4.70;99.90;;;;;;4929395;29;20039;-87
2024/01/01 09:09:49;;;;;;;7.63;3.15;;;4.70;99.90;;;;;;4942097;28;20039;-88
2024/01/01 09:12:15;;;;;;;8.45;3.55;;;4.70;99.90;;;;;;4926088;28;20038;-87
2024/01/01 09:14:41;;;;;;;8.48;3.00;;;4.80;99.90;;;;;;4926851;28;20475;-87
2024/01/01 09:17:07;;;;;;;8.82;2.95;;;4.80;99.90;;;;;;4939494;28;20143;-87
2024/01/01 09:19:33;;;;;;;7.43;2.97;;;4.80;99.90;;;;;;4925218;29;20039;-87
2024/01/01 09:22:00;;;;;;;12.48;3.40;;;4.80;99.90;;;;;;4940755;28;20039;-88
2024/01/01 09:24:26;;;;;;;5.28;2.47;;;4.90;99.90;;;;;;4956971;28;20027;-86
2024/01/01 09:26:52;;;;;;;6.97;3.08;;;4.90;99.90;;;;;;4923571;28;20125;-87
2024/01/01 09:29:17;;;;;;;6.85;2.80;;;4.90;99.90;;;;;;4945967;28;20035;-87
2024/01/01 09:31:43;;;;;;;14.15;2.83;;;4.90;99.90;;;;;;4926742;28;20039;-87
2024/01/01 09:34:09;;;;;;;5.53;2.55;;;4.90;99.90;;;;;;4946351;28;20495;-86
2024/01/01 09:36:35;;;;;;;7.68;2.53;;;4.90;99.90;;;;;;4945659;29;20039;-88
2024/01/01 09:39:01;;;;;;;8.02;2.60;;;5.00;99.90;;;;;;4939935;29;20055;-86
2024/01/01 09:41:27;;;;;;;6.38;2.42;;;5.00;99.90;;;;;;4941806;29;20546;-87
2024/01/01 09:43:56;;;;;;;9.10;2.38;;;5.00;99.90;;;;;;4940701;28;20442;-86
2024/01/01 09:46:23;;;;;;;10.82;3.15;;;5.10;99.90;;;;;;4935246;29;20043;-88
2024/01/01 09:48:49;;;;;;;5.88;2.08;;;5.10;99.90;;;;;;4941445;28;20039;-88
2024/01/01 09:51:15;;;;;;;14.13;3.75;;;5.20;99.90;;;;;;4938564;29;20031;-88
2024/01/01 09:53:44;;;;;;;8.60;2.50;;;5.20;99.90;;;;;;4918328;28;20070;-88
2024/01/01 09:56:09;;;;;;;12.95;2.17;;;5.20;99.90;;;;;;4934182;29;20063;-88
2024/01/01 09:58:42;;;;;;;7.50;2.00;;;5.20;99.90;;;;;;4961203;28;20063;-88
2024/01/01 10:01:12;;;;;;;9.00;2.13;;;5.20;99.90;;;;;;4941555;29;20023;-88
2024/01/01 10:03:39;;;;;;;6.00;2.45;;;5.20;99.90;;;;;;4941112;28;20115;-87
2024/01/01 10:06:10;;;;;;;9.25;1.83;;;5.20;99.90;;;;;;4940981;28;20035;-88
2024/01/01 10:08:36;;;;;;;7.35;2.33;;;5.30;99.90;;;;;;4947807;28;20035;-88
2024/01/01 10:11:20;;;;;;;8.68;2.03;;;5.30;99.90;;;;;;4955957;28;20043;-87
2024/01/01 10:13:46;;;;;;;6.45;2.28;;;5.30;99.90;;;;;;4955930;28;20086;-87
2024/01/01 10:16:24;;;;;;;4.65;1.60;;;5.40;99.90;;;;;;4919543;28;20035;-88
2024/01/01 10:18:58;;;;;;;7.65;2.08;;;5.40;99.90;;;;;;4956456;28;20028;-88
2024/01/01 10:21:30;;;;;;;7.03;1.95;;;5.50;99.90;;;;;;4933542;28;20039;-87
2024/01/01 10:23:57;;;;;;;9.32;1.58;;;5.50;99.90;;;;;;4952417;28;20487;-88
2024/01/01 10:26:24;;;;;;;7.32;1.63;;;5.60;99.90;;;;;;4954333;28;20428;-88
2024/01/01 10:28:50;;;;;;;8.73;2.30;;;5.60;99.90;;;;;;4950692;28;20032;-87
2024/01/01 10:31:16;;;;;;;6.05;1.50;;;5.70;99.90;;;;;;4932134;28;20388;-86
2024/01/01 10:33:47;;;;;;;8.73;1.63;;;5.80;99.90;;;;;;4948203;28;20038;-87
2024/01/01 10:36:16;;;;;;;6.30;1.60;;;5.80;99.90;;;;;;4938605;28;20040;-87
2024/01/01 10:38:44;;;;;;;7.70;1.88;;;5.90;99.90;;;;;;4942565;29;20406;-88
2024/01/01 10:41:11;;;;;;;6.07;1.63;;;5.90;99.90;;;;;;4940280;29;20114;-87
2024/01/01 10:43:38;;;;;;;9.95;1.77;;;5.90;99.90;;;;;;4940867;28;20039;-87
2024/01/01 10:46:04;;;;;;;6.22;1.13;;;5.90;99.90;;;;;;4939591;28;20039;-86
2024/01/01 10:48:31;;;;;;;5.75;1.52;;;6.00;99.90;;;;;;4942143;28;20070;-87
2024/01/01 10:51:13;;;;;;;5.40;1.80;;;5.90;99.90;;;;;;4940059;29;20066;-87
2024/01/01 10:54:15;;;;;;;7.72;1.40;;;6.00;99.90;;;;;;4952414;28;20034;-86
2024/01/01 10:56:55;;;;;;;5.90;1.45;;;6.00;99.90;;;;;;4923981;28;20042;-86
2024/01/01 10:59:23;;;;;;;6.43;1.35;;;6.00;99.90;;;;;;4940374;28;20109;-85
2024/01/01 11:01:52;;;;;;;4.53;1.40;;;6.10;99.90;;;;;;4957589;28;20135;-86
2024/01/01 11:04:22;;;;;;;6.43;1.65;;;6.10;99.90;;;;;;4956224;28;20114;-87
2024/01/01 11:06:47;;;;;;;2.83;1.35;;;6.10;99.90;;;;;;4946644;28;20039;-87
2024/01/01 11:09:19;;;;;;;5.20;1.40;;;6.20;99.90;;;;;;4940826;28;20034;-86
2024/01/01 11:11:52;;;;;;;7.40;1.92;;;6.10;99.90;;;;;;4943248;28;20059;-87
2024/01/01 11:14:37;;;;;;;5.60;1.33;;;6.10;99.90;;;;;;4942702;28;20554;-87
2024/01/01 11:17:10;;;;;;;12.17;1.50;;;6.10;99.90;;;;;;4953882;28;20087;-85
2024/01/01 11:19:46;;;;;;;5.88;1.70;;;6.00;99.90;;;;;;4935245;29;20110;-87
2024/01/01 11:22:23;;;;;;;7.50;1.52;;;6.10;99.90;;;;;;4952627;28;20031;-86
2024/01/01 11:24:50;;;;;;;6.00;1.58;;;6.10;99.90;;;;;;4961173;28;20031;-86
2024/01/01 11:27:26;;;;;;;6.78;1.25;;;6.00;99.90;;;;;;4943187;28;20062;-86
2024/01/01 11:29:52;;;;;;;4.60;0.95;;;6.10;99.90;;;;;;4960973;28;20035;-86
2024/01/01 11:32:19;;;;;;;6.72;1.52;;;6.10;99.90;;;;;;4948285;28;20039;-87
2024/01/01 11:35:02;;;;;;;4.38;1.10;;;6.10;99.90;;;;;;4908069;28;20050;-87
2024/01/01 11:37:28;;;;;;;4.53;1.25;;;6.10;99.90;;;;;;4942209;28;20393;-87
2024/01/01 11:39:58;;;;;;;8.07;1.38;;;6.10;99.90;;;;;;4935794;28;20118;-86
2024/01/01 11:42:24;;;;;;;7.43;1.30;;;6.20;99.90;;;;;;4963489;28;20046;-86
2024/01/01 11:44:49;;;;;;;7.50;1.20;;;6.20;99.90;;;;;;4945269;28;20472;-85
2024/01/01 11:47:18;;;;;;;6.00;1.13;;;6.20;99.90;;;;;;4941800;28;20062;-86
2024/01/01 11:49:53;;;;;;;7.20;1.10;;;6.10;99.90;;;;;;4930567;28;20039;-86
2024/01/01 11:52:19;;;;;;;5.15;1.02;;;6.20;99.90;;;;;;4936349;29;20118;-87
2024/01/01 11:54:48;;;;;;;3.70;1.10;;;6.20;99.90;;;;;;4944072;28;20196;-86
2024/01/01 11:57:13;;;;;;;5.85;1.30;;;6.20;99.90;;;;;;4948885;28;20046;-87
2024/01/01 11:59:42;;;;;;;3.95;0.82;;;6.20;99.90;;;;;;4959090;28;20574;-86
2024/01/01 12:02:10;;;;;;;4.25;0.80;;;6.20;99.90;;;;;;4937933;29;20642;-85
2024/01/01 12:04:36;;;;;;;4.68;1.08;;;6.20;99.90;;;;;;4941414;28;20514;-86
2024/01/01 12:07:02;;;;;;;7.07;1.30;;;6.20;99.90;;;;;;4922185;28;20035;-86
2024/01/01 12:09:28;;;;;;;5.07;1.20;;;6.20;99.90;;;;;;4959103;28;20213;-86
2024/01/01 12:12:03;;;;;;;5.55;1.20;;;6.20;99.90;;;;;;4942649;28;20129;-85
2024/01/01 12:14:29;;;;;;;6.55;0.93;;;6.20;99.90;;;;;;4944710;28;20027;-85
2024/01/01 12:16:57;;;;;;;3.55;1.10;;;6.30;99.90;;;;;;4930907;28;20400;-85
2024/01/01 12:19:23;;;;;;;8.43;1.17;;;6.30;99.90;;;;;;4957365;28;20922;-86
2024/01/01 12:21:50;;;;;;;6.30;1.30;;;6.30;99.90;;;;;;4926471;28;20042;-86
2024/01/01 12:24:17;;;;;;;3.58;0.82;;;6.40;99.90;;;;;;4948020;28;20051;-86
2024/01/01 12:26:46;;;;;;;9.82;1.20;;;6.40;99.90;;;;;;4966018;28;20045;-85
2024/01/01 12:29:20;;;;;;;8.75;1.13;;;6.40;99.90;;;;;;4958037;28;20015;-84
2024/01/01 12:31:47;;;;;;;6.60;0.93;;;6.40;99.90;;;;;;4937438;29;20042;-86
2024/01/01 12:34:15;;;;;;;6.22;1.15;;;6.40;99.90;;;;;;4953240;28;20054;-85
2024/01/01 12:36:43;;;;;;;5.68;1.20;;;6.40;99.90;;;;;;4938176;29;20396;-85
2024/01/01 12:39:10;;;;;;;6.05;1.38;;;6.40;99.90;;;;;;4958891;28;20027;-85
2024/01/01 12:41:36;;;;;;;6.80;1.30;;;6.40;99.90;;;;;;4937557;28;20144;-85
2024/01/01 12:44:02;;;;;;;5.85;0.90;;;6.40;99.90;;;;;;4922950;28;20067;-86
2024/01/01 12:46:29;;;;;;;7.97;1.75;;;6.30;99.90;;;;;;4946686;28;20032;-86